Time;durP1;ratioP1;P1;durP2;ratioP2;P2;SDS_P1;SDS_P2;PMS_P1;PMS_P2;Temp;Humidity;BMP_temperature;BMP_pressure;BME280_temperature;BME280_humidity;BME280_pressure;Samples;Min_cycle;Max_cycle;Signal;HPM_P1;HPM_P2
2021/04/15 00:00:55;;;;;;;37.22;35.22;;;2.10;99.90;;;;;;5074597;28;20232;-81
2021/04/15 00:03:24;;;;;;;36.87;34.60;;;2.00;99.90;;;;;;5074985;28;20555;-81
2021/04/15 00:05:51;;;;;;;39.92;37.63;;;2.10;99.90;;;;;;5074016;28;20965;-81
2021/04/15 00:08:19;;;;;;;37.08;35.08;;;2.00;99.90;;;;;;5072646;28;20311;-81
2021/04/15 00:10:48;;;;;;;39.58;36.22;;;2.00;99.90;;;;;;5074579;28;20189;-80
2021/04/15 00:13:20;;;;;;;36.08;34.28;;;2.00;99.90;;;;;;5074723;28;20731;-81
2021/04/15 00:15:46;;;;;;;38.88;36.35;;;2.00;99.90;;;;;;5073623;28;20299;-81
2021/04/15 00:18:12;;;;;;;40.00;37.55;;;2.00;99.90;;;;;;5074446;28;20219;-82
2021/04/15 00:20:39;;;;;;;41.03;38.65;;;1.90;99.90;;;;;;5073951;28;20188;-81
2021/04/15 00:23:06;;;;;;;38.67;36.10;;;1.80;99.90;;;;;;5073001;28;20219;-78
2021/04/15 00:25:32;;;;;;;39.72;37.42;;;1.60;99.90;;;;;;5064540;28;20186;-81
2021/04/15 00:27:59;;;;;;;39.70;37.47;;;1.50;99.90;;;;;;5054114;28;20276;-79
2021/04/15 00:30:26;;;;;;;42.75;40.60;;;1.30;99.90;;;;;;5066579;28;20300;-81
2021/04/15 00:32:53;;;;;;;46.95;44.70;;;1.20;99.90;;;;;;5073668;28;20261;-81
2021/04/15 00:35:21;;;;;;;50.80;48.20;;;1.20;99.90;;;;;;5073508;28;20212;-81
2021/04/15 00:37:48;;;;;;;54.10;51.50;;;1.20;99.90;;;;;;5072497;28;20952;-81
2021/04/15 00:40:16;;;;;;;50.95;48.25;;;1.10;99.90;;;;;;5073702;28;20219;-80
2021/04/15 00:42:42;;;;;;;50.17;47.72;;;0.90;99.90;;;;;;5073741;28;20715;-80
2021/04/15 00:45:11;;;;;;;54.20;51.05;;;0.80;99.90;;;;;;5073527;28;20224;-81
2021/04/15 00:47:44;;;;;;;62.40;58.95;;;0.70;99.90;;;;;;5073630;28;20196;-81
2021/04/15 00:50:17;;;;;;;71.40;68.20;;;0.70;99.90;;;;;;5074052;28;20227;-81
2021/04/15 00:52:48;;;;;;;80.50;76.90;;;0.80;99.90;;;;;;5071317;28;20769;-81
2021/04/15 00:55:19;;;;;;;84.38;80.68;;;0.90;99.90;;;;;;5073540;28;20718;-81
2021/04/15 00:57:48;;;;;;;93.63;89.22;;;0.90;99.90;;;;;;5073242;28;20184;-83
2021/04/15 01:00:18;;;;;;;83.20;79.30;;;0.80;99.90;;;;;;5073290;28;20199;-83
2021/04/15 01:02:45;;;;;;;83.78;79.93;;;0.70;99.90;;;;;;5073286;28;20191;-83
2021/04/15 01:05:19;;;;;;;82.07;78.32;;;0.60;99.90;;;;;;5073391;28;20197;-84
2021/04/15 01:07:45;;;;;;;77.22;73.47;;;0.60;99.90;;;;;;5071966;28;20228;-83
2021/04/15 01:10:13;;;;;;;74.78;71.38;;;0.30;99.90;;;;;;5072950;28;20342;-83
2021/04/15 01:12:53;;;;;;;75.93;72.53;;;0.30;99.90;;;;;;5073140;28;20184;-83
2021/04/15 01:15:33;;;;;;;80.80;74.50;;;0.30;99.90;;;;;;5072859;28;20220;-82
2021/04/15 01:18:05;;;;;;;71.82;68.53;;;0.40;99.90;;;;;;5073033;28;20188;-83
2021/04/15 01:21:09;;;;;;;82.95;78.88;;;0.20;99.90;;;;;;5073157;28;20322;-83
2021/04/15 01:23:41;;;;;;;90.50;86.45;;;0.20;99.90;;;;;;5071257;28;20215;-83
2021/04/15 01:26:38;;;;;;;88.50;84.57;;;0.20;99.90;;;;;;5073022;28;20245;-84
2021/04/15 01:29:14;;;;;;;86.85;82.45;;;0.10;99.90;;;;;;5052982;28;20204;-81
2021/04/15 01:31:57;;;;;;;89.07;84.78;;;0.00;99.90;;;;;;5056437;28;20184;-82
2021/04/15 01:34:31;;;;;;;87.78;83.75;;;-0.10;99.90;;;;;;5072788;28;20224;-83
2021/04/15 01:37:02;;;;;;;90.60;86.55;;;-0.10;99.90;;;;;;5071909;28;20224;-84
2021/04/15 01:39:35;;;;;;;79.78;76.32;;;-0.10;99.90;;;;;;5071826;28;20287;-83
2021/04/15 01:42:08;;;;;;;67.28;63.65;;;-0.10;99.90;;;;;;5072061;28;20192;-82
2021/04/15 01:44:40;;;;;;;65.80;62.97;;;-0.10;99.90;;;;;;5072307;28;20303;-84
2021/04/15 01:47:12;;;;;;;67.90;64.75;;;0.00;99.90;;;;;;5072597;28;20576;-83
2021/04/15 01:49:41;;;;;;;71.10;67.60;;;0.00;99.90;;;;;;5072775;28;20199;-83
2021/04/15 01:52:12;;;;;;;75.80;72.47;;;-0.20;99.90;;;;;;5071792;28;20239;-83
2021/04/15 01:54:44;;;;;;;68.10;64.78;;;-0.20;99.90;;;;;;5071322;28;20199;-82
2021/04/15 01:57:16;;;;;;;64.82;61.92;;;-0.20;99.90;;;;;;5072192;28;20192;-83
2021/04/15 01:59:46;;;;;;;70.07;66.60;;;-0.30;99.90;;;;;;5071945;28;20188;-82
2021/04/15 02:02:17;;;;;;;71.32;68.03;;;-0.30;99.90;;;;;;5072347;28;20207;-83
2021/04/15 02:04:49;;;;;;;67.95;64.72;;;-0.30;99.90;;;;;;5072448;28;20196;-83
2021/04/15 02:07:19;;;;;;;48.90;46.72;;;-0.30;99.90;;;;;;5071586;28;20227;-83
2021/04/15 02:09:50;;;;;;;58.83;56.13;;;-0.20;99.90;;;;;;5071556;28;20192;-82
2021/04/15 02:12:21;;;;;;;63.70;60.90;;;-0.10;99.90;;;;;;5072028;28;20662;-83
2021/04/15 02:14:54;;;;;;;71.75;67.85;;;-0.30;99.90;;;;;;5071957;28;20250;-82
2021/04/15 02:17:22;;;;;;;68.28;65.22;;;-0.50;99.90;;;;;;5072021;28;20227;-83
2021/04/15 02:19:56;;;;;;;73.03;69.90;;;-0.60;99.90;;;;;;5072225;28;20280;-83
2021/04/15 02:22:29;;;;;;;62.60;59.50;;;-0.50;99.90;;;;;;5071262;28;20187;-82
2021/04/15 02:25:04;;;;;;;65.80;60.03;;;-0.50;99.90;;;;;;5072258;28;20189;-83
2021/04/15 02:27:39;;;;;;;53.00;50.47;;;-0.60;99.90;;;;;;5071374;28;20709;-83
2021/04/15 02:30:17;;;;;;;60.60;57.90;;;-0.60;99.90;;;;;;5071787;28;20188;-83
2021/04/15 02:32:47;;;;;;;64.10;61.20;;;-0.70;99.90;;;;;;5072063;28;20630;-83
2021/04/15 02:35:21;;;;;;;59.10;56.45;;;-0.60;99.90;;;;;;5072099;28;20275;-81
2021/04/15 02:37:52;;;;;;;64.07;61.20;;;-0.70;99.90;;;;;;5070699;28;20251;-83
2021/04/15 02:40:23;;;;;;;71.80;68.50;;;-0.70;99.90;;;;;;5072141;28;20566;-82
2021/04/15 02:42:50;;;;;;;77.35;73.30;;;-0.80;99.90;;;;;;5071345;28;20207;-83
2021/04/15 02:45:26;;;;;;;83.50;79.25;;;-0.70;99.90;;;;;;5071848;28;20218;-83
2021/04/15 02:47:58;;;;;;;77.32;73.95;;;-0.60;99.90;;;;;;5052159;28;20238;-83
2021/04/15 02:50:26;;;;;;;88.82;84.90;;;-0.60;99.90;;;;;;5066687;28;20545;-82
2021/04/15 02:53:03;;;;;;;79.10;75.38;;;-0.50;99.90;;;;;;5070100;28;20196;-82
2021/04/15 02:55:40;;;;;;;78.63;74.93;;;-0.60;99.90;;;;;;5071854;28;20235;-84
2021/04/15 02:58:12;;;;;;;82.57;78.57;;;-0.60;99.90;;;;;;5072151;28;20204;-82
2021/04/15 03:00:45;;;;;;;85.13;81.07;;;-0.60;99.90;;;;;;5071699;28;20200;-83
2021/04/15 03:03:15;;;;;;;86.10;81.75;;;-0.60;99.90;;;;;;5071535;28;20193;-84
2021/04/15 03:05:44;;;;;;;83.15;79.38;;;-0.70;99.90;;;;;;5070956;28;20212;-83
2021/04/15 03:08:14;;;;;;;90.65;86.65;;;-0.80;99.90;;;;;;5069835;28;20212;-82
2021/04/15 03:10:47;;;;;;;90.63;86.55;;;-0.90;99.90;;;;;;5065513;28;20287;-83
2021/04/15 03:13:16;;;;;;;93.97;89.65;;;-0.90;99.90;;;;;;5061971;28;20192;-82
2021/04/15 03:15:48;;;;;;;87.65;83.75;;;-0.90;99.90;;;;;;5073192;28;20238;-84
2021/04/15 03:18:17;;;;;;;99.07;94.57;;;-0.80;99.90;;;;;;5075504;28;20224;-83
2021/04/15 03:20:49;;;;;;;98.85;94.30;;;-0.80;99.90;;;;;;5075021;28;20228;-83
2021/04/15 03:23:28;;;;;;;117.22;112.00;;;-0.70;99.90;;;;;;5073766;28;20194;-83
2021/04/15 03:26:03;;;;;;;113.28;108.40;;;-0.70;99.90;;;;;;5070707;28;20625;-81
2021/04/15 03:28:36;;;;;;;119.00;113.38;;;-0.80;99.90;;;;;;5074867;28;20601;-82
2021/04/15 03:31:15;;;;;;;122.75;116.70;;;-0.80;99.90;;;;;;5074267;28;20277;-81
2021/04/15 03:33:47;;;;;;;126.25;120.75;;;-0.60;99.90;;;;;;5077286;28;20185;-83
2021/04/15 03:36:19;;;;;;;130.40;124.47;;;-0.60;99.90;;;;;;5074271;28;20246;-83
2021/04/15 03:38:50;;;;;;;117.47;111.97;;;-0.70;99.90;;;;;;5073929;28;20188;-82
2021/04/15 03:41:23;;;;;;;115.03;109.63;;;-0.70;99.90;;;;;;5074884;28;20223;-83
2021/04/15 03:43:57;;;;;;;106.72;101.95;;;-0.90;99.90;;;;;;5074667;28;20221;-82
2021/04/15 03:46:31;;;;;;;114.55;109.70;;;-0.90;99.90;;;;;;5075097;28;20220;-82
2021/04/15 03:49:03;;;;;;;116.32;110.93;;;-0.90;99.90;;;;;;5074953;28;20197;-82
2021/04/15 03:51:36;;;;;;;110.63;105.47;;;-0.90;99.90;;;;;;5074459;28;20220;-82
2021/04/15 03:54:06;;;;;;;95.75;91.60;;;-1.00;99.90;;;;;;5073717;28;20192;-82
2021/04/15 03:56:39;;;;;;;88.65;84.55;;;-0.90;99.90;;;;;;5075280;28;20199;-80
2021/04/15 03:59:11;;;;;;;87.38;83.25;;;-0.90;99.90;;;;;;5074160;28;20195;-83
2021/04/15 04:01:42;;;;;;;98.53;94.22;;;-0.80;99.90;;;;;;5074810;28;20199;-80
2021/04/15 04:04:21;;;;;;;97.80;93.75;;;-0.70;99.90;;;;;;5074491;28;20191;-82
2021/04/15 04:06:50;;;;;;;95.57;91.50;;;-0.60;99.90;;;;;;5072910;28;20243;-81
2021/04/15 04:09:22;;;;;;;92.45;88.25;;;-0.80;99.90;;;;;;5065876;28;20693;-82
2021/04/15 04:11:50;;;;;;;93.68;89.53;;;-0.90;99.90;;;;;;5066792;28;20186;-82
2021/04/15 04:14:20;;;;;;;113.43;95.22;;;-1.10;99.90;;;;;;5058597;28;20212;-83
2021/04/15 04:16:53;;;;;;;96.05;91.97;;;-1.10;99.90;;;;;;5074515;28;20283;-83
2021/04/15 04:19:24;;;;;;;107.35;102.63;;;-1.10;99.90;;;;;;5074208;28;20260;-82
2021/04/15 04:21:57;;;;;;;109.55;104.55;;;-1.00;99.90;;;;;;5074124;28;20230;-82
2021/04/15 04:24:31;;;;;;;107.97;103.32;;;-1.00;99.90;;;;;;5072932;28;20189;-83
2021/04/15 04:27:04;;;;;;;108.97;104.05;;;-1.10;99.90;;;;;;5072462;28;20311;-83
2021/04/15 04:29:37;;;;;;;103.20;98.40;;;-1.20;99.90;;;;;;5074447;28;20199;-82
2021/04/15 04:32:11;;;;;;;104.18;99.38;;;-1.40;99.90;;;;;;5074015;28;20283;-82
2021/04/15 04:34:38;;;;;;;101.30;96.80;;;-1.50;99.90;;;;;;5073873;28;20623;-83
2021/04/15 04:37:06;;;;;;;100.15;95.78;;;-1.50;99.90;;;;;;5073766;28;20258;-83
2021/04/15 04:39:32;;;;;;;101.93;97.32;;;-1.40;99.90;;;;;;5073265;28;20729;-83
2021/04/15 04:42:14;;;;;;;102.43;97.82;;;-1.40;99.90;;;;;;5073539;28;20214;-83
2021/04/15 04:44:43;;;;;;;110.25;104.65;;;-1.40;99.90;;;;;;5059176;28;20194;-84
2021/04/15 04:47:18;;;;;;;133.63;127.25;;;-1.30;99.90;;;;;;5072777;28;20269;-82
2021/04/15 04:49:52;;;;;;;120.35;114.32;;;-1.20;99.90;;;;;;5072797;28;20214;-83
2021/04/15 04:52:25;;;;;;;113.72;108.88;;;-1.20;99.90;;;;;;5073291;28;20640;-83
2021/04/15 04:54:52;;;;;;;105.57;100.25;;;-1.10;99.90;;;;;;5055793;28;20189;-83
2021/04/15 04:57:32;;;;;;;101.63;96.72;;;-1.10;99.90;;;;;;5053548;28;20825;-83
2021/04/15 05:00:03;;;;;;;101.90;97.22;;;-1.10;99.90;;;;;;5072894;28;20220;-82
2021/04/15 05:02:30;;;;;;;106.57;101.53;;;-1.10;99.90;;;;;;5073059;28;20598;-80
2021/04/15 05:05:08;;;;;;;119.80;114.20;;;-1.00;99.90;;;;;;5072339;28;20600;-83
2021/04/15 05:07:38;;;;;;;120.20;114.78;;;-0.90;99.90;;;;;;5072362;28;20307;-83
2021/04/15 05:10:08;;;;;;;114.55;109.53;;;-0.80;99.90;;;;;;5073712;28;20203;-82
2021/04/15 05:12:36;;;;;;;100.55;96.13;;;-0.90;99.90;;;;;;5073244;28;20200;-81
2021/04/15 05:15:07;;;;;;;91.60;87.47;;;-0.80;99.90;;;;;;5073587;28;20192;-82
2021/04/15 05:17:36;;;;;;;95.50;91.25;;;-0.70;99.90;;;;;;5073438;28;20293;-81
2021/04/15 05:20:06;;;;;;;90.43;86.45;;;-0.60;99.90;;;;;;5072975;28;20211;-83
2021/04/15 05:22:36;;;;;;;98.47;93.72;;;-0.60;99.90;;;;;;5072133;28;20566;-84
2021/04/15 05:25:07;;;;;;;111.13;105.95;;;-0.50;99.90;;;;;;5073229;28;20231;-82
2021/04/15 05:27:36;;;;;;;112.82;107.20;;;-0.50;99.90;;;;;;5072677;28;20223;-83
2021/04/15 05:30:32;;;;;;;108.38;103.50;;;-0.30;99.90;;;;;;5073057;28;20905;-82
2021/04/15 05:33:05;;;;;;;117.90;112.15;;;-0.30;99.90;;;;;;5073144;28;20586;-81
2021/04/15 05:35:40;;;;;;;120.28;114.28;;;-0.10;99.90;;;;;;5072608;28;20196;-81
2021/04/15 05:38:13;;;;;;;109.60;103.85;;;-0.10;99.90;;;;;;5071368;28;20777;-82
2021/04/15 05:40:40;;;;;;;116.32;110.35;;;-0.20;99.90;;;;;;5073095;28;20556;-82
2021/04/15 05:43:32;;;;;;;114.60;108.80;;;-0.10;99.90;;;;;;5072559;28;20217;-82
2021/04/15 05:46:09;;;;;;;117.65;111.55;;;-0.10;99.90;;;;;;5072783;28;20286;-82
2021/04/15 05:48:43;;;;;;;102.13;97.47;;;0.00;99.90;;;;;;5073162;28;20215;-81
2021/04/15 05:51:16;;;;;;;108.10;103.20;;;0.10;99.90;;;;;;5073148;28;20659;-82
2021/04/15 05:53:50;;;;;;;110.85;105.88;;;0.10;99.90;;;;;;5071919;28;20663;-82
2021/04/15 05:56:45;;;;;;;;;;;;;;;;;;;;;
2021/04/15 05:59:17;;;;;;;110.78;105.50;;;0.40;99.90;;;;;;5073161;28;20265;-81
2021/04/15 06:02:08;;;;;;;117.35;112.05;;;0.50;99.90;;;;;;5073161;28;20188;-82
2021/04/15 06:04:39;;;;;;;109.60;104.50;;;0.70;99.90;;;;;;5073772;28;20196;-81
2021/04/15 06:07:09;;;;;;;117.53;111.57;;;0.60;99.90;;;;;;5072892;28;20261;-83
2021/04/15 06:09:38;;;;;;;125.22;119.25;;;0.70;99.90;;;;;;5071811;28;20195;-83
2021/04/15 06:12:13;;;;;;;130.15;123.68;;;0.90;99.90;;;;;;5073210;28;20219;-82
2021/04/15 06:14:46;;;;;;;124.05;118.00;;;0.80;99.90;;;;;;5074003;28;20248;-82
2021/04/15 06:17:35;;;;;;;123.35;115.35;;;1.00;99.90;;;;;;5072922;28;20193;-82
2021/04/15 06:20:11;;;;;;;103.60;97.88;;;1.30;99.90;;;;;;5068547;28;20211;-82
2021/04/15 06:23:06;;;;;;;110.53;104.88;;;1.30;99.90;;;;;;5071682;28;20535;-82
2021/04/15 06:25:57;;;;;;;96.05;91.53;;;1.40;99.90;;;;;;5072863;28;20224;-82
2021/04/15 06:28:33;;;;;;;100.15;94.85;;;1.60;99.90;;;;;;5072977;28;20192;-82
2021/04/15 06:31:22;;;;;;;81.88;77.85;;;1.70;99.90;;;;;;5072904;28;20246;-82
2021/04/15 06:34:04;;;;;;;90.55;85.63;;;1.80;99.90;;;;;;5072973;28;20275;-81
2021/04/15 06:36:43;;;;;;;85.20;79.95;;;1.90;99.90;;;;;;5072700;28;20226;-84
2021/04/15 06:39:24;;;;;;;69.03;65.32;;;2.00;99.90;;;;;;5072700;28;20230;-82
2021/04/15 06:42:43;;;;;;;83.65;78.88;;;2.10;99.90;;;;;;5072748;28;20231;-83
2021/04/15 06:45:27;;;;;;;67.40;63.42;;;2.30;99.90;;;;;;5072844;28;20195;-83
2021/04/15 06:48:24;;;;;;;70.00;66.30;;;2.50;99.90;;;;;;5072698;28;20325;-83
2021/04/15 06:51:16;;;;;;;68.78;64.72;;;2.60;99.90;;;;;;5074561;28;20192;-81
2021/04/15 06:54:12;;;;;;;80.32;75.72;;;2.70;99.90;;;;;;5075580;28;20639;-82
2021/04/15 06:56:52;;;;;;;59.75;56.65;;;2.80;99.90;;;;;;5076545;28;20242;-82
2021/04/15 06:59:39;;;;;;;51.78;48.97;;;2.90;99.90;;;;;;5076466;28;20195;-80
2021/04/15 07:02:09;;;;;;;53.10;49.97;;;3.10;99.90;;;;;;5076496;28;20279;-80
2021/04/15 07:04:44;;;;;;;48.23;45.63;;;3.20;99.90;;;;;;5076761;28;20501;-81
2021/04/15 07:10:15;;;;;;;33.33;31.37;;;3.40;99.90;;;;;;5103760;22;20239;-79
2021/04/15 07:13:30;;;;;;;28.53;26.37;;;3.50;99.90;;;;;;5052830;28;20780;-80
2021/04/15 07:16:33;;;;;;;32.47;30.27;;;3.50;99.90;;;;;;5056063;28;20531;-80
2021/04/15 07:21:55;;;;;;;9.00;5.50;;;3.80;99.90;;;;;;5186977;22;20483;-81
2021/04/15 07:24:42;;;;;;;16.33;9.97;;;3.80;99.90;;;;;;5035125;28;20453;-81
2021/04/15 07:27:37;;;;;;;16.70;9.53;;;4.00;99.90;;;;;;5035885;28;20583;-80
2021/04/15 07:30:35;;;;;;;15.20;10.20;;;3.90;99.90;;;;;;5035877;28;20458;-80
2021/04/15 07:36:38;;;;;;;11.77;7.63;;;4.20;99.90;;;;;;5023055;28;20455;-81
2021/04/15 07:42:31;;;;;;;11.93;8.10;;;4.50;99.90;;;;;;5167947;22;20521;-83
2021/04/15 07:45:06;;;;;;;17.30;9.30;;;4.50;99.90;;;;;;5013915;28;20454;-81
2021/04/15 07:47:58;;;;;;;21.83;8.03;;;4.70;99.90;;;;;;5028879;28;20519;-80
2021/04/15 07:51:07;;;;;;;11.97;6.60;;;4.70;99.90;;;;;;5062683;28;20554;-80
2021/04/15 07:54:16;;;;;;;17.90;8.30;;;4.80;99.90;;;;;;5064688;28;20523;-79
2021/04/15 08:00:38;;;;;;;19.00;8.70;;;5.60;99.90;;;;;;5047197;28;20461;-83
2021/04/15 08:03:39;;;;;;;15.63;7.83;;;6.10;99.90;;;;;;5073252;28;20455;-84
2021/04/15 08:06:50;;;;;;;13.97;6.07;;;6.50;99.90;;;;;;5049377;28;20467;-82
2021/04/15 08:09:56;;;;;;;21.57;7.00;;;6.80;72.20;;;;;;5051654;28;20462;-82
2021/04/15 08:12:55;;;;;;;14.23;6.37;;;7.00;58.60;;;;;;5351461;22;20507;-83
2021/04/15 08:15:41;;;;;;;14.77;5.53;;;7.50;52.00;;;;;;4940834;29;20465;-80
2021/04/15 08:18:38;;;;;;;19.93;6.10;;;7.70;34.50;;;;;;4932670;29;20468;-81
2021/04/15 08:21:24;;;;;;;21.27;6.77;;;8.30;33.90;;;;;;4932465;29;20952;-82
2021/04/15 08:24:12;;;;;;;14.30;4.97;;;8.30;26.60;;;;;;4931913;28;20453;-80
2021/04/15 08:27:27;;;;;;;20.23;6.00;;;8.50;26.70;;;;;;4932996;29;20500;-80
2021/04/15 08:30:27;;;;;;;15.70;5.47;;;8.80;26.40;;;;;;4940759;29;20532;-80
2021/04/15 08:33:16;;;;;;;17.90;5.60;;;8.60;20.80;;;;;;4952658;29;20451;-81
2021/04/15 08:36:20;;;;;;;16.20;5.90;;;8.80;21.40;;;;;;4936186;28;21034;-80
2021/04/15 08:39:11;;;;;;;14.93;3.87;;;8.50;19.60;;;;;;4931763;29;20458;-80
2021/04/15 08:41:53;;;;;;;22.53;4.03;;;8.40;17.90;;;;;;4932422;29;20802;-79
2021/04/15 08:44:36;;;;;;;10.80;2.93;;;8.10;16.80;;;;;;4932524;29;20963;-79
2021/04/15 08:47:27;;;;;;;14.83;3.57;;;8.60;15.80;;;;;;5122363;22;20487;-81
2021/04/15 08:50:04;;;;;;;10.80;2.13;;;8.40;14.20;;;;;;4932120;28;20465;-83
2021/04/15 08:52:44;;;;;;;11.63;3.43;;;7.80;11.80;;;;;;4931479;28;20471;-81
2021/04/15 08:58:56;;;;;;;11.50;2.43;;;7.70;16.70;;;;;;4914632;29;20861;-83
2021/04/15 09:01:39;;;;;;;12.90;3.73;;;7.80;16.80;;;;;;4854982;29;21078;-82
2021/04/15 09:04:12;;;;;;;11.57;3.50;;;7.80;16.00;;;;;;4854727;29;20860;-82
2021/04/15 09:06:50;;;;;;;9.10;2.10;;;7.80;15.50;;;;;;4908229;29;20491;-82
2021/04/15 09:09:21;;;;;;;10.43;2.90;;;8.10;15.70;;;;;;4931058;29;20469;-82
2021/04/15 09:12:17;;;;;;;11.13;3.47;;;8.30;16.80;;;;;;4929305;29;20471;-82
2021/04/15 09:15:03;;;;;;;13.70;3.40;;;8.30;15.10;;;;;;4931273;29;20553;-82
2021/04/15 09:17:39;;;;;;;9.73;2.17;;;8.20;16.30;;;;;;4931958;29;20467;-82
2021/04/15 09:20:14;;;;;;;16.93;4.63;;;7.90;14.00;;;;;;4929790;29;20467;-83
2021/04/15 09:23:07;;;;;;;12.03;2.90;;;8.00;17.20;;;;;;4931028;29;20469;-81
2021/04/15 09:25:46;;;;;;;15.40;3.30;;;8.20;16.60;;;;;;4932137;29;20549;-83
2021/04/15 09:28:27;;;;;;;15.43;3.17;;;8.20;12.70;;;;;;4931575;29;20476;-81
2021/04/15 09:31:25;;;;;;;9.27;2.60;;;8.20;12.10;;;;;;4931953;29;20487;-82
2021/04/15 09:34:20;;;;;;;9.63;2.83;;;8.10;11.10;;;;;;4931497;28;20534;-83
2021/04/15 09:37:14;;;;;;;9.83;2.30;;;8.90;13.60;;;;;;4931414;29;20503;-83
2021/04/15 09:40:00;;;;;;;9.23;1.87;;;9.60;2.40;;;;;;4930219;29;20457;-83
2021/04/15 09:43:05;;;;;;;12.07;2.90;;;9.30;3.10;;;;;;4931339;28;20458;-83
2021/04/15 09:45:59;;;;;;;11.10;2.10;;;9.00;4.40;;;;;;4932085;29;20461;-82
2021/04/15 09:49:14;;;;;;;11.30;2.90;;;8.50;4.80;;;;;;4931243;29;20504;-84
2021/04/15 09:52:21;;;;;;;13.00;2.40;;;8.70;5.70;;;;;;4887645;29;20807;-82
2021/04/15 09:55:31;;;;;;;11.83;3.33;;;10.00;3.50;;;;;;4930387;28;20465;-82
2021/04/15 09:58:12;;;;;;;17.63;3.90;;;10.90;1.00;;;;;;4918204;29;20462;-82
2021/04/15 10:00:42;;;;;;;12.00;1.20;;;12.10;1.00;;;;;;4931175;29;20464;-84
2021/04/15 10:03:23;;;;;;;15.90;2.47;;;11.10;1.00;;;;;;4931539;29;20465;-84
2021/04/15 10:06:16;;;;;;;16.83;2.40;;;11.20;1.00;;;;;;4931664;28;20458;-82
2021/04/15 10:09:19;;;;;;;16.53;2.63;;;11.40;1.00;;;;;;4932329;28;20474;-83
2021/04/15 10:12:01;;;;;;;17.33;2.60;;;12.50;1.00;;;;;;4933194;29;20460;-82
2021/04/15 10:15:03;;;;;;;27.83;3.23;;;13.00;1.00;;;;;;4933195;29;20494;-82
2021/04/15 10:18:01;;;;;;;18.90;2.40;;;11.90;1.00;;;;;;4932954;28;20456;-84
2021/04/15 10:20:45;;;;;;;18.23;2.03;;;11.60;1.00;;;;;;4932965;29;20457;-85
2021/04/15 10:23:33;;;;;;;17.70;2.30;;;10.90;1.00;;;;;;4931968;29;20517;-81
2021/04/15 10:26:15;;;;;;;14.37;2.03;;;10.00;1.00;;;;;;4932841;28;20461;-81
2021/04/15 10:29:08;;;;;;;14.67;2.13;;;9.40;1.00;;;;;;4932841;29;20981;-81
2021/04/15 10:35:39;;;;;;;14.50;2.20;;;11.10;1.00;;;;;;4920385;29;20991;-81
2021/04/15 10:39:02;;;;;;;15.30;1.83;;;10.80;1.00;;;;;;4931529;29;20468;-82
2021/04/15 10:42:25;;;;;;;17.47;2.90;;;10.40;1.00;;;;;;4932716;29;20462;-82
2021/04/15 10:45:13;;;;;;;13.87;1.93;;;10.70;1.00;;;;;;4860324;29;20570;-82
2021/04/15 10:48:08;;;;;;;14.83;2.20;;;10.50;1.00;;;;;;4932544;29;20495;-81
2021/04/15 10:50:51;;;;;;;13.50;1.70;;;10.60;1.00;;;;;;4932786;29;20470;-82
2021/04/15 10:53:50;;;;;;;13.10;1.90;;;10.30;1.00;;;;;;4931558;29;20566;-82
2021/04/15 10:56:50;;;;;;;13.23;2.10;;;10.60;1.00;;;;;;4900343;29;20482;-83
2021/04/15 10:59:38;;;;;;;15.67;2.63;;;11.50;1.00;;;;;;4932461;28;20475;-82
2021/04/15 11:07:38;;;;;;;15.70;2.80;;;13.00;1.00;;;;;;5441507;22;20496;-82
2021/04/15 11:10:11;;;;;;;16.50;2.30;;;13.90;1.00;;;;;;4932619;28;20468;-83
2021/04/15 11:15:22;;;;;;;19.97;2.00;;;13.50;1.00;;;;;;5529038;22;20894;-81
2021/04/15 11:17:54;;;;;;;23.70;3.27;;;13.20;1.00;;;;;;4932231;29;20597;-81
2021/04/15 11:20:35;;;;;;;21.07;2.80;;;12.90;1.00;;;;;;4932380;28;20468;-81
2021/04/15 11:23:27;;;;;;;19.30;1.73;;;13.40;1.00;;;;;;4931423;28;20505;-81
2021/04/15 11:29:26;;;;;;;18.20;1.80;;;11.80;1.00;;;;;;4931794;29;20456;-80
2021/04/15 11:31:53;;;;;;;18.83;2.63;;;10.90;1.00;;;;;;4932417;29;20450;-80
2021/04/15 11:34:27;;;;;;;17.30;2.60;;;11.00;1.00;;;;;;4932176;28;20860;-80
2021/04/15 11:37:21;;;;;;;16.83;2.47;;;10.90;1.00;;;;;;4933775;28;20996;-79
2021/04/15 11:39:56;;;;;;;19.30;2.43;;;11.00;1.00;;;;;;4934296;28;20474;-79
2021/04/15 11:42:23;;;;;;;15.17;2.10;;;11.00;1.00;;;;;;4935454;28;20507;-80
2021/04/15 11:44:56;;;;;;;16.73;2.47;;;10.40;1.00;;;;;;4935250;29;20549;-80
2021/04/15 11:47:29;;;;;;;14.27;2.00;;;10.40;1.00;;;;;;4935210;28;20489;-80
2021/04/15 11:50:17;;;;;;;13.97;2.10;;;10.50;1.00;;;;;;4935291;29;20489;-80
2021/04/15 11:52:56;;;;;;;15.20;2.57;;;11.30;1.00;;;;;;4933753;28;20548;-80
2021/04/15 11:55:30;;;;;;;16.10;2.60;;;12.70;1.00;;;;;;5420131;22;20515;-82
2021/04/15 11:58:16;;;;;;;18.10;2.53;;;13.70;1.00;;;;;;4935109;28;20485;-83
2021/04/15 12:00:45;;;;;;;20.00;3.27;;;14.60;1.00;;;;;;4935292;29;20463;-82
2021/04/15 12:03:15;;;;;;;22.10;2.53;;;14.60;1.00;;;;;;4935225;29;20537;-81
2021/04/15 12:05:45;;;;;;;27.63;2.70;;;14.60;1.00;;;;;;4934977;29;20975;-81
2021/04/15 12:08:18;;;;;;;21.70;1.73;;;15.40;1.00;;;;;;4933843;29;20531;-81
2021/04/15 12:10:50;;;;;;;23.40;2.50;;;14.70;1.00;;;;;;4934969;29;20457;-81
2021/04/15 12:13:29;;;;;;;23.30;2.30;;;14.50;1.00;;;;;;4934839;28;20507;-81
2021/04/15 12:16:05;;;;;;;24.47;2.53;;;14.10;1.00;;;;;;4934928;29;20807;-81
2021/04/15 12:18:47;;;;;;;28.37;3.17;;;13.90;1.00;;;;;;5301157;22;21460;-81
2021/04/15 12:21:21;;;;;;;21.60;1.47;;;13.80;1.00;;;;;;4934721;29;20461;-79
2021/04/15 12:23:57;;;;;;;23.00;2.87;;;13.40;1.00;;;;;;4934675;28;20457;-80
2021/04/15 12:26:27;;;;;;;21.50;1.50;;;14.40;1.00;;;;;;4934631;28;20968;-80
2021/04/15 12:29:02;;;;;;;25.53;2.50;;;14.20;1.00;;;;;;4934465;29;20457;-81
2021/04/15 12:31:37;;;;;;;23.60;2.50;;;14.10;1.00;;;;;;5278395;22;20496;-83
2021/04/15 12:34:28;;;;;;;25.07;2.80;;;15.10;1.00;;;;;;4934650;29;20530;-81
2021/04/15 12:37:04;;;;;;;23.67;2.10;;;15.70;1.00;;;;;;4934578;29;20492;-81
2021/04/15 12:39:42;;;;;;;24.80;2.10;;;15.40;1.00;;;;;;4933170;28;20543;-82
2021/04/15 12:42:15;;;;;;;24.77;2.17;;;14.70;1.00;;;;;;4934637;28;20456;-81
2021/04/15 12:44:43;;;;;;;25.27;2.27;;;14.10;1.00;;;;;;4934589;28;20820;-81
2021/04/15 12:47:16;;;;;;;25.83;2.57;;;13.40;1.00;;;;;;4933824;29;20858;-81
2021/04/15 12:49:42;;;;;;;24.17;2.50;;;13.00;1.00;;;;;;4934176;28;20456;-80
2021/04/15 12:52:12;;;;;;;22.60;2.33;;;12.20;1.00;;;;;;4934297;28;20483;-80
2021/04/15 12:54:42;;;;;;;21.47;1.67;;;11.20;1.00;;;;;;4933219;28;20457;-82
2021/04/15 12:57:11;;;;;;;19.27;2.60;;;10.70;1.00;;;;;;4934089;29;21002;-83
2021/04/15 12:59:40;;;;;;;19.10;2.70;;;10.60;1.00;;;;;;4934118;29;20470;-83
2021/04/15 13:02:15;;;;;;;19.20;2.70;;;10.50;1.00;;;;;;4934222;28;20460;-83
2021/04/15 13:04:46;;;;;;;15.87;1.83;;;10.40;1.00;;;;;;4934386;28;20475;-83
2021/04/15 13:07:29;;;;;;;19.50;1.97;;;10.30;1.00;;;;;;4934079;28;20568;-82
2021/04/15 13:10:26;;;;;;;17.17;3.07;;;10.30;1.00;;;;;;4933781;28;20465;-82
2021/04/15 13:13:02;;;;;;;17.50;1.67;;;10.90;1.00;;;;;;4933994;29;20467;-81
2021/04/15 13:15:46;;;;;;;14.00;1.43;;;11.50;1.00;;;;;;4933954;29;20461;-80
2021/04/15 13:18:52;;;;;;;16.10;2.20;;;12.60;1.00;;;;;;4933819;29;20503;-80
2021/04/15 13:21:41;;;;;;;16.00;1.60;;;13.30;1.00;;;;;;4934017;28;20457;-83
2021/04/15 13:24:40;;;;;;;17.10;1.77;;;14.10;1.00;;;;;;4932877;29;20461;-83
2021/04/15 13:27:53;;;;;;;17.87;1.87;;;13.80;1.00;;;;;;4933853;29;20888;-81
2021/04/15 13:30:34;;;;;;;20.47;2.47;;;13.90;1.00;;;;;;4933409;28;20453;-82
2021/04/15 13:33:09;;;;;;;20.67;1.50;;;14.60;1.00;;;;;;4933745;28;20526;-81
2021/04/15 13:35:42;;;;;;;20.43;1.67;;;13.10;1.00;;;;;;4933777;28;20464;-83
2021/04/15 13:38:44;;;;;;;21.53;2.37;;;12.30;1.00;;;;;;4932429;28;20518;-82
2021/04/15 13:41:15;;;;;;;19.23;2.07;;;12.10;1.00;;;;;;4933567;29;20467;-82
2021/04/15 13:43:46;;;;;;;19.40;1.33;;;11.40;1.00;;;;;;4933507;28;21007;-82
2021/04/15 13:46:32;;;;;;;18.83;3.60;;;11.00;1.00;;;;;;4933643;29;20494;-83
2021/04/15 13:49:00;;;;;;;17.83;3.00;;;10.70;1.00;;;;;;4933327;29;20470;-82
2021/04/15 13:51:27;;;;;;;15.50;1.63;;;10.70;1.00;;;;;;4933433;28;20971;-83
2021/04/15 13:54:11;;;;;;;14.87;1.47;;;10.40;1.00;;;;;;4932432;29;20470;-82
2021/04/15 13:57:01;;;;;;;14.93;1.63;;;10.60;1.00;;;;;;4933346;29;20483;-82
2021/04/15 13:59:43;;;;;;;17.00;2.90;;;10.90;1.00;;;;;;4920539;29;20468;-82
2021/04/15 14:02:49;;;;;;;15.73;3.40;;;11.50;1.00;;;;;;4921947;29;20953;-83
2021/04/15 14:05:39;;;;;;;14.17;2.33;;;13.40;1.00;;;;;;4931844;29;20470;-83
2021/04/15 14:08:46;;;;;;;17.70;2.33;;;15.20;1.00;;;;;;4931311;28;20515;-83
2021/04/15 14:11:43;;;;;;;17.87;1.87;;;15.00;1.00;;;;;;4931708;29;20488;-84